createdAt,value
2022-12-31T00:01:40.614Z,-25
2022-12-31T00:07:00.312Z,-25.6
2022-12-31T00:12:19.874Z,-29.9
2022-12-31T00:17:39.142Z,-25.6
2022-12-31T00:28:17.999Z,-25.4
2022-12-31T00:33:37.734Z,-25.1
2022-12-31T00:44:16.131Z,-25.3
2022-12-31T00:49:34.896Z,-25.2
2022-12-31T00:54:54.523Z,-25.5
2022-12-31T01:00:13.516Z,-24.7
2022-12-31T01:05:32.395Z,-25.4
2022-12-31T01:10:51.517Z,-25.8
2022-12-31T01:16:10.825Z,-25.9
2022-12-31T01:26:49.465Z,-25.4
2022-12-31T01:32:08.966Z,-25.4
2022-12-31T01:42:47.193Z,-25.3
2022-12-31T01:48:05.984Z,-25.5
2022-12-31T01:53:25.027Z,-28.8
2022-12-31T01:58:44.487Z,-24.9
2022-12-31T02:10:38.738Z,-25.6
2022-12-31T02:14:43.392Z,-25.1
2022-12-31T02:25:20.997Z,-25.3
2022-12-31T02:30:40.200Z,-24.9
2022-12-31T02:35:59.107Z,-25.5
2022-12-31T02:41:17.995Z,-25.1
2022-12-31T02:46:36.900Z,-25.5
2022-12-31T02:51:55.904Z,-25.5
2022-12-31T02:57:14.741Z,-24.9
2022-12-31T03:07:53.593Z,-29.6
2022-12-31T03:13:12.989Z,-25
2022-12-31T03:18:32.217Z,-28.6
2022-12-31T03:23:51.121Z,-25.1
2022-12-31T03:34:29.948Z,-24.7
2022-12-31T03:39:48.810Z,-25.4
2022-12-31T03:50:27.091Z,-25.3
2022-12-31T03:55:47.083Z,-25.6
2022-12-31T04:06:26.151Z,-24.7
2022-12-31T04:11:44.135Z,-25.3
2022-12-31T04:17:03.249Z,-25.5
2022-12-31T04:22:22.569Z,-25.3
2022-12-31T04:27:41.905Z,-25.8
2022-12-31T04:33:01.230Z,-25.4
2022-12-31T04:38:20.901Z,-25
2022-12-31T04:48:59.346Z,-24.8
2022-12-31T04:54:18.414Z,-25
2022-12-31T04:59:37.758Z,-25.5
2022-12-31T05:04:58.161Z,-25.5
2022-12-31T05:15:36.127Z,-25.6
2022-12-31T05:26:13.807Z,-25.1
2022-12-31T05:31:33.406Z,-25.6
2022-12-31T05:36:53.217Z,-25.4
2022-12-31T05:42:12.922Z,-25.7
2022-12-31T05:52:51.259Z,-25.5
2022-12-31T05:58:10.984Z,-25.5
2022-12-31T06:03:30.346Z,-25.2
2022-12-31T06:08:49.651Z,-26.4
2022-12-31T06:14:09.250Z,-25.2
2022-12-31T06:24:46.766Z,-25.8
2022-12-31T06:30:05.542Z,-24.6
2022-12-31T06:35:24.898Z,-25.7
2022-12-31T06:40:43.936Z,-25.1
2022-12-31T06:46:03.231Z,-25.6
2022-12-31T06:51:22.878Z,-25.3
2022-12-31T06:56:42.308Z,-25.3
2022-12-31T07:07:20.563Z,-28.8
2022-12-31T07:12:40.042Z,-25.7
2022-12-31T07:17:58.932Z,-25.4
2022-12-31T07:23:17.750Z,-25.6
2022-12-31T07:33:56.042Z,-24.8
2022-12-31T07:39:14.844Z,-20.8
2022-12-31T07:49:53.789Z,-9.7
2022-12-31T07:55:12.556Z,-8
2022-12-31T08:05:51.920Z,-4.5
2022-12-31T08:16:29.892Z,29.1
2022-12-31T08:21:49.418Z,59.1
2022-12-31T08:32:27.956Z,21.5
2022-12-31T08:37:48.295Z,28.2
2022-12-31T08:48:26.091Z,38.4
2022-12-31T08:53:45.444Z,44
2022-12-31T09:04:24.246Z,127.6
2022-12-31T09:15:02.693Z,170.5
2022-12-31T09:20:21.762Z,82.7
2022-12-31T09:31:00.393Z,232.4
2022-12-31T09:36:19.773Z,199
2022-12-31T09:46:58.608Z,202.4
2022-12-31T09:57:36.817Z,140.1
2022-12-31T10:02:56.383Z,118.5
2022-12-31T10:13:35.219Z,127.1
2022-12-31T10:18:53.421Z,121.9
2022-12-31T10:24:12.500Z,83
2022-12-31T10:29:32.704Z,139
2022-12-31T10:34:51.881Z,246.9
2022-12-31T10:40:11.418Z,146.6
2022-12-31T10:45:30.143Z,136.89
2022-12-31T10:50:49.269Z,228.1
2022-12-31T10:56:08.710Z,-27.5
2022-12-31T11:01:27.655Z,231
2022-12-31T11:12:06.527Z,-294.56
2022-12-31T11:17:25.481Z,-232.76
2022-12-31T11:28:04.212Z,-219.06
2022-12-31T11:33:23.256Z,-290.06
2022-12-31T11:38:42.223Z,-25.9
2022-12-31T11:44:01.187Z,-26
2022-12-31T11:49:20.113Z,-313.06
2022-12-31T11:54:39.701Z,-321.46
2022-12-31T12:05:18.022Z,-308.06
2022-12-31T12:10:37.197Z,258.79
2022-12-31T12:15:56.375Z,305.4
2022-12-31T12:21:15.503Z,253.2
2022-12-31T12:26:34.448Z,315.4
2022-12-31T12:31:54.028Z,249.6
2022-12-31T12:37:12.824Z,210.7
2022-12-31T12:47:50.889Z,206.1
2022-12-31T12:54:25.086Z,-25.1
2022-12-31T13:04:23.680Z,141.7
2022-12-31T13:14:26.512Z,183.1
2022-12-31T13:19:46.858Z,180
2022-12-31T13:25:05.718Z,197.6
2022-12-31T13:36:09.923Z,148.3
2022-12-31T13:46:48.940Z,100.5
2022-12-31T13:52:07.656Z,80.5
2022-12-31T14:02:47.364Z,44.4
2022-12-31T14:08:06.893Z,32
2022-12-31T14:13:30.756Z,25.5
2022-12-31T14:18:44.067Z,18.9
2022-12-31T14:24:03.399Z,11.7
2022-12-31T14:29:22.448Z,7.3
2022-12-31T14:34:41.608Z,2.4
2022-12-31T14:45:19.150Z,-6.4
2022-12-31T14:50:38.078Z,-9.8
2022-12-31T15:01:16.672Z,-17.4
2022-12-31T15:06:36.172Z,-24.7
2022-12-31T15:11:55.013Z,-24.2
2022-12-31T15:17:13.995Z,-28.3
2022-12-31T15:22:33.279Z,-26.5
2022-12-31T15:27:52.135Z,-26.5
2022-12-31T15:33:11.088Z,-26.1
2022-12-31T15:43:50.311Z,-24.8
2022-12-31T15:49:15.262Z,-24.9
2022-12-31T15:54:28.926Z,-25.8
2022-12-31T15:59:47.831Z,-25.6
2022-12-31T16:10:25.588Z,-25
2022-12-31T16:15:44.516Z,-25.3
2022-12-31T16:26:23.180Z,-29.1
2022-12-31T16:31:42.588Z,-25.3
2022-12-31T16:37:02.072Z,-25.7
2022-12-31T16:42:21.487Z,-25.7
2022-12-31T16:47:40.830Z,-25.7
2022-12-31T16:52:59.590Z,-25.6
2022-12-31T16:58:19.270Z,-24.8
2022-12-31T17:08:56.986Z,-26
2022-12-31T17:14:16.661Z,-25.6
2022-12-31T17:24:55.674Z,-25.5
2022-12-31T17:35:33.592Z,-25.4
2022-12-31T17:40:52.995Z,-25.4
2022-12-31T17:51:30.579Z,-25.7
2022-12-31T17:56:49.519Z,-25.3
2022-12-31T18:07:27.795Z,-25.1
2022-12-31T18:12:46.950Z,-27.7
2022-12-31T18:18:06.498Z,-25.4
2022-12-31T18:23:25.924Z,-25
2022-12-31T18:34:04.354Z,-29.5
2022-12-31T18:44:43.707Z,-25.1
2022-12-31T18:50:02.850Z,-25.3
2022-12-31T19:00:40.648Z,-25.1
2022-12-31T19:05:59.915Z,-25.1
2022-12-31T19:11:19.581Z,-25.8
2022-12-31T19:16:39.151Z,-25.3
2022-12-31T19:27:18.117Z,-25.6
2022-12-31T19:32:37.649Z,-25.1
2022-12-31T19:43:16.160Z,-25
2022-12-31T19:48:35.177Z,-25.4
2022-12-31T19:53:54.366Z,-25.5
2022-12-31T19:59:13.898Z,-25.3
2022-12-31T20:09:52.477Z,-25.3
2022-12-31T20:15:11.817Z,-25.3
2022-12-31T20:25:49.797Z,-26.3
2022-12-31T20:31:09.115Z,-25.3
2022-12-31T20:36:27.818Z,-25.1
2022-12-31T20:41:47.229Z,-25.5
2022-12-31T20:47:06.057Z,-25.1
2022-12-31T20:52:25.110Z,-25.3
2022-12-31T20:57:44.384Z,-25.2
2022-12-31T21:08:23.460Z,-24.9
2022-12-31T21:13:43.441Z,-25.5
2022-12-31T21:19:01.741Z,-25.5
2022-12-31T21:24:23.983Z,-25.6
2022-12-31T21:30:01.808Z,-25.5
2022-12-31T21:35:31.410Z,-25.7
2022-12-31T21:40:18.282Z,-25.1
2022-12-31T21:50:56.972Z,-25.4
2022-12-31T21:56:16.329Z,-25.2
2022-12-31T22:06:55.378Z,-25
2022-12-31T22:17:33.298Z,-24.7
2022-12-31T22:22:52.459Z,-24.7
2022-12-31T22:28:37.387Z,-24.9
2022-12-31T22:33:31.020Z,-25.1
2022-12-31T22:38:50.441Z,-25.1
2022-12-31T22:49:28.890Z,-27.7
2022-12-31T22:54:47.964Z,-25.4
2022-12-31T23:00:07.296Z,-24.8
2022-12-31T23:05:26.850Z,-24.8
2022-12-31T23:16:05.071Z,-24.9
2022-12-31T23:21:24.036Z,-25.3
2022-12-31T23:32:01.738Z,-24.7
2022-12-31T23:37:21.220Z,-25
2022-12-31T23:42:40.019Z,-25.1
2022-12-31T23:47:58.741Z,-25.8
2022-12-31T23:53:17.393Z,-24.8
2022-12-31T23:58:36.930Z,-25
